createdAt,value
2018-11-14T00:01:11.718Z,17.30
2018-11-14T00:03:40.327Z,18.37
2018-11-14T00:06:09.148Z,18.87
2018-11-14T00:08:37.898Z,12.23
2018-11-14T00:11:06.592Z,13.53
2018-11-14T00:13:35.383Z,9.50
2018-11-14T00:16:04.362Z,19.10
2018-11-14T00:18:33.240Z,14.20
2018-11-14T00:21:02.192Z,16.00
2018-11-14T00:23:31.345Z,19.07
2018-11-14T00:26:00.208Z,21.77
2018-11-14T00:28:29.007Z,17.40
2018-11-14T00:30:58.125Z,18.03
2018-11-14T00:33:26.812Z,15.47
2018-11-14T00:35:55.705Z,21.67
2018-11-14T00:38:24.264Z,20.97
2018-11-14T00:40:52.815Z,11.83
2018-11-14T00:43:21.329Z,12.77
2018-11-14T00:45:50.187Z,14.43
2018-11-14T00:48:18.924Z,18.47
2018-11-14T00:50:47.675Z,14.37
2018-11-14T00:53:16.762Z,17.20
2018-11-14T00:55:45.369Z,17.63
2018-11-14T00:58:14.466Z,14.30
2018-11-14T01:00:43.022Z,10.33
2018-11-14T01:03:11.701Z,15.77
2018-11-14T01:05:40.464Z,16.07
2018-11-14T01:08:09.493Z,13.50
2018-11-14T01:10:38.385Z,18.50
2018-11-14T01:13:07.085Z,17.93
2018-11-14T01:15:36.040Z,12.90
2018-11-14T01:18:05.087Z,13.87
2018-11-14T01:20:33.335Z,14.50
2018-11-14T01:23:02.170Z,22.83
2018-11-14T01:25:30.988Z,17.33
2018-11-14T01:27:59.659Z,18.43
2018-11-14T01:30:28.434Z,24.10
2018-11-14T01:32:56.929Z,13.00
2018-11-14T01:35:25.973Z,16.43
2018-11-14T01:37:54.555Z,16.23
2018-11-14T01:40:24.605Z,19.73
2018-11-14T01:42:57.246Z,28.37
2018-11-14T01:45:25.907Z,14.03
2018-11-14T01:47:54.479Z,15.73
2018-11-14T01:50:23.095Z,14.40
2018-11-14T01:52:51.744Z,16.23
2018-11-14T01:55:21.334Z,10.60
2018-11-14T01:57:50.244Z,13.90
2018-11-14T02:00:20.446Z,11.80
2018-11-14T02:02:49.128Z,16.93
2018-11-14T02:05:17.697Z,15.07
2018-11-14T02:07:46.337Z,18.60
2018-11-14T02:10:16.708Z,15.13
2018-11-14T02:12:45.748Z,20.27
2018-11-14T02:15:17.442Z,13.20
2018-11-14T02:17:46.110Z,15.23
2018-11-14T02:20:15.095Z,19.00
2018-11-14T02:22:44.401Z,13.20
2018-11-14T02:25:13.431Z,18.23
2018-11-14T02:27:42.149Z,15.50
2018-11-14T02:30:13.889Z,22.97
2018-11-14T02:32:42.781Z,12.20
2018-11-14T02:35:11.702Z,13.63
2018-11-14T02:37:41.733Z,16.37
2018-11-14T02:40:12.740Z,18.47
2018-11-14T02:42:42.081Z,16.30
2018-11-14T02:45:11.970Z,20.50
2018-11-14T02:47:40.843Z,22.60
2018-11-14T02:50:12.797Z,15.43
2018-11-14T02:52:41.742Z,19.10
2018-11-14T02:55:11.988Z,11.50
2018-11-14T02:57:40.733Z,13.23
2018-11-14T03:00:14.555Z,14.87
2018-11-14T03:02:43.572Z,18.63
2018-11-14T03:05:12.167Z,15.10
2018-11-14T03:07:40.944Z,17.60
2018-11-14T03:10:15.645Z,19.90
2018-11-14T03:12:44.260Z,16.60
2018-11-14T03:15:15.790Z,15.93
2018-11-14T03:17:44.408Z,18.27
2018-11-14T03:20:17.637Z,16.63
2018-11-14T03:22:46.300Z,17.73
2018-11-14T03:25:15.117Z,19.53
2018-11-14T03:27:44.018Z,19.83
2018-11-14T03:30:15.428Z,18.30
2018-11-14T03:32:44.484Z,11.43
2018-11-14T03:35:13.660Z,13.10
2018-11-14T03:37:42.314Z,12.43
2018-11-14T03:40:13.164Z,11.97
2018-11-14T03:42:41.676Z,17.00
2018-11-14T03:45:12.104Z,11.37
2018-11-14T03:47:41.211Z,13.73
2018-11-14T03:50:10.380Z,15.93
2018-11-14T03:52:39.225Z,16.77
2018-11-14T03:55:07.820Z,12.20
2018-11-14T03:57:36.467Z,18.93
2018-11-14T04:00:08.225Z,14.93
2018-11-14T04:02:36.756Z,14.90
2018-11-14T04:05:05.734Z,16.80
2018-11-14T04:07:34.441Z,17.83
2018-11-14T04:10:03.534Z,15.60
2018-11-14T04:12:32.025Z,13.50
2018-11-14T04:15:00.626Z,21.30
2018-11-14T04:17:29.389Z,17.37
2018-11-14T04:19:58.285Z,14.60
2018-11-14T04:22:26.900Z,13.83
2018-11-14T04:24:55.504Z,18.37
2018-11-14T04:27:48.476Z,16.20
2018-11-14T04:30:19.508Z,15.87
2018-11-14T04:32:48.213Z,17.07
2018-11-14T04:35:18.055Z,17.73
2018-11-14T04:37:46.590Z,13.10
2018-11-14T04:40:17.330Z,14.27
2018-11-14T04:42:46.309Z,16.33
2018-11-14T04:45:18.335Z,15.13
2018-11-14T04:47:47.097Z,13.33
2018-11-14T04:50:19.795Z,17.47
2018-11-14T04:52:49.075Z,15.77
2018-11-14T04:55:18.967Z,15.53
2018-11-14T04:57:47.879Z,12.30
2018-11-14T05:00:17.824Z,16.00
2018-11-14T05:02:47.348Z,18.90
2018-11-14T05:05:17.287Z,14.10
2018-11-14T05:07:46.041Z,12.10
2018-11-14T05:10:17.024Z,16.30
2018-11-14T05:12:46.061Z,16.40
2018-11-14T05:15:16.105Z,16.50
2018-11-14T05:17:45.572Z,15.53
2018-11-14T05:20:15.384Z,14.33
2018-11-14T05:22:44.432Z,16.37
2018-11-14T05:25:13.059Z,17.57
2018-11-14T05:27:41.767Z,14.10
2018-11-14T05:30:14.868Z,13.97
2018-11-14T05:32:44.612Z,11.70
2018-11-14T05:35:13.750Z,20.03
2018-11-14T05:37:42.450Z,15.13
2018-11-14T05:40:13.651Z,21.50
2018-11-14T05:42:42.576Z,22.70
2018-11-14T05:45:13.913Z,13.43
2018-11-14T05:47:42.536Z,15.43
2018-11-14T05:50:15.960Z,17.37
2018-11-14T05:52:44.495Z,14.77
2018-11-14T05:55:13.837Z,19.67
2018-11-14T05:57:42.457Z,18.00
2018-11-14T06:00:17.697Z,18.60
2018-11-14T06:02:46.760Z,16.53
2018-11-14T06:05:15.945Z,20.90
2018-11-14T06:07:45.675Z,17.17
2018-11-14T06:10:14.349Z,18.70
2018-11-14T06:12:43.566Z,19.50
2018-11-14T06:15:15.788Z,15.63
2018-11-14T06:17:45.049Z,16.03
2018-11-14T06:20:15.728Z,15.87
2018-11-14T06:22:45.424Z,14.37
2018-11-14T06:25:35.234Z,13.53
2018-11-14T06:28:05.035Z,15.87
2018-11-14T06:30:34.473Z,19.80
2018-11-14T06:33:04.382Z,20.83
2018-11-14T06:35:34.583Z,20.13
2018-11-14T06:38:03.938Z,18.43
2018-11-14T06:40:32.965Z,19.80
2018-11-14T06:43:01.684Z,20.87
2018-11-14T06:45:31.563Z,17.80
2018-11-14T06:48:00.941Z,18.23
2018-11-14T06:50:29.790Z,18.70
2018-11-14T06:53:00.208Z,16.70
2018-11-14T06:55:28.976Z,14.93
2018-11-14T06:57:57.964Z,16.33
2018-11-14T07:00:29.840Z,15.80
2018-11-14T07:02:59.465Z,19.20
2018-11-14T07:05:28.339Z,17.43
2018-11-14T07:07:57.125Z,20.23
2018-11-14T07:10:27.126Z,13.30
2018-11-14T07:13:00.093Z,16.67
2018-11-14T07:15:28.861Z,18.23
2018-11-14T07:17:57.926Z,18.00
2018-11-14T07:20:30.723Z,15.57
2018-11-14T07:22:59.346Z,16.00
2018-11-14T07:25:27.874Z,15.37
2018-11-14T07:27:56.803Z,21.83
2018-11-14T07:30:26.564Z,12.70
2018-11-14T07:32:57.423Z,17.80
2018-11-14T07:35:26.026Z,21.40
2018-11-14T07:38:50.886Z,17.70
2018-11-14T07:41:22.812Z,16.03
2018-11-14T07:43:51.707Z,20.60
2018-11-14T07:46:20.531Z,17.80
2018-11-14T07:48:50.249Z,16.20
2018-11-14T07:51:19.018Z,18.40
2018-11-14T07:53:48.257Z,18.40
2018-11-14T07:56:16.798Z,16.40
2018-11-14T07:58:45.590Z,16.03
2018-11-14T08:01:14.632Z,13.70
2018-11-14T08:03:43.510Z,17.70
2018-11-14T08:06:12.497Z,18.93
2018-11-14T08:08:41.198Z,17.57
2018-11-14T08:11:09.784Z,16.67
2018-11-14T08:13:40.126Z,24.93
2018-11-14T08:16:08.684Z,20.70
2018-11-14T08:18:37.467Z,22.77
2018-11-14T08:21:06.570Z,23.07
2018-11-14T08:23:35.233Z,21.10
2018-11-14T08:26:03.995Z,21.03
2018-11-14T08:28:32.848Z,20.40
2018-11-14T08:31:02.020Z,17.63
2018-11-14T08:33:30.759Z,18.07
2018-11-14T08:36:00.774Z,19.57
2018-11-14T08:38:30.408Z,14.93
2018-11-14T08:40:59.018Z,19.00
2018-11-14T08:43:27.696Z,21.57
2018-11-14T08:45:56.559Z,17.20
2018-11-14T08:48:25.562Z,14.60
2018-11-14T08:50:58.663Z,18.80
2018-11-14T08:53:27.705Z,16.50
2018-11-14T08:55:56.432Z,15.70
2018-11-14T08:58:25.211Z,22.70
2018-11-14T09:00:54.587Z,15.93
2018-11-14T09:03:23.838Z,14.33
2018-11-14T09:05:52.593Z,16.50
2018-11-14T09:08:21.660Z,15.70
2018-11-14T09:10:50.268Z,20.97
2018-11-14T09:13:18.930Z,18.83
2018-11-14T09:15:47.637Z,18.23
2018-11-14T09:18:16.689Z,18.93
2018-11-14T09:20:45.551Z,11.90
2018-11-14T09:23:14.606Z,15.17
2018-11-14T09:25:43.335Z,18.00
2018-11-14T09:28:12.569Z,18.10
2018-11-14T09:30:41.664Z,19.33
2018-11-14T09:33:10.793Z,15.67
2018-11-14T09:35:39.834Z,17.90
2018-11-14T09:38:08.797Z,14.83
2018-11-14T09:40:37.551Z,15.93
2018-11-14T09:43:06.592Z,15.13
2018-11-14T09:45:35.272Z,20.00
2018-11-14T09:48:04.329Z,16.50
2018-11-14T09:50:33.574Z,19.37
2018-11-14T09:53:04.811Z,17.07
2018-11-14T09:55:33.434Z,13.30
2018-11-14T09:58:11.022Z,15.17
2018-11-14T10:00:39.885Z,13.03
2018-11-14T10:03:14.795Z,13.20
2018-11-14T10:05:43.662Z,18.70
2018-11-14T10:08:12.501Z,13.37
2018-11-14T10:10:41.318Z,16.83
2018-11-14T10:13:09.813Z,12.07
2018-11-14T10:15:38.587Z,9.07
2018-11-14T10:18:10.919Z,12.90
2018-11-14T10:20:51.031Z,18.43
2018-11-14T10:23:20.468Z,10.60
2018-11-14T10:25:49.075Z,10.77
2018-11-14T10:28:17.927Z,14.90
2018-11-14T10:30:46.878Z,14.37
2018-11-14T10:33:15.987Z,13.33
2018-11-14T10:35:44.923Z,13.87
2018-11-14T10:38:14.045Z,12.50
2018-11-14T10:40:42.884Z,16.97
2018-11-14T10:43:12.626Z,21.73
2018-11-14T10:45:42.057Z,18.10
2018-11-14T10:48:10.953Z,12.87
2018-11-14T10:50:40.250Z,11.97
2018-11-14T10:53:09.219Z,12.47
2018-11-14T10:55:39.384Z,11.33
2018-11-14T10:58:08.233Z,16.13
2018-11-14T11:00:42.340Z,12.00
2018-11-14T11:03:16.436Z,11.07
2018-11-14T11:05:52.155Z,15.73
2018-11-14T11:08:24.649Z,13.07
2018-11-14T11:10:58.893Z,9.13
2018-11-14T11:13:33.071Z,12.13
2018-11-14T11:16:07.086Z,10.53
2018-11-14T11:18:36.061Z,12.43
2018-11-14T11:21:05.002Z,15.37
2018-11-14T11:23:34.529Z,15.00
2018-11-14T11:26:03.569Z,10.37
2018-11-14T11:28:32.455Z,9.53
2018-11-14T11:31:01.316Z,14.27
2018-11-14T11:33:30.862Z,14.23
2018-11-14T11:36:00.410Z,13.53
2018-11-14T11:38:29.406Z,11.53
2018-11-14T11:40:58.440Z,14.90
2018-11-14T11:43:27.187Z,10.33
2018-11-14T11:45:57.108Z,11.07
2018-11-14T11:48:26.141Z,12.07
2018-11-14T11:50:55.095Z,10.07
2018-11-14T11:53:23.955Z,14.10
2018-11-14T11:55:53.681Z,12.70
2018-11-14T11:58:24.376Z,8.57
2018-11-14T12:01:09.131Z,13.83
2018-11-14T12:03:39.061Z,13.07
2018-11-14T12:11:55.412Z,10.30
2018-11-14T12:14:28.782Z,10.57
2018-11-14T12:17:02.364Z,13.87
2018-11-14T12:22:17.048Z,11.03
2018-11-14T12:24:46.167Z,11.80
2018-11-14T12:27:15.471Z,14.50
2018-11-14T12:29:45.431Z,15.97
2018-11-14T12:32:14.422Z,16.63
2018-11-14T12:34:43.379Z,9.87
2018-11-14T12:37:12.266Z,9.70
2018-11-14T12:39:41.412Z,12.57
2018-11-14T12:42:10.389Z,14.77
2018-11-14T12:44:38.975Z,15.70
2018-11-14T12:47:07.727Z,10.13
2018-11-14T12:49:36.750Z,11.17
2018-11-14T12:52:05.844Z,10.93
2018-11-14T12:54:34.581Z,15.83
2018-11-14T12:57:03.886Z,14.50
2018-11-14T12:59:39.101Z,13.97
2018-11-14T13:02:10.883Z,13.17
2018-11-14T13:04:43.302Z,16.43
2018-11-14T13:09:57.504Z,12.07
2018-11-14T13:12:31.416Z,13.07
2018-11-14T13:15:04.771Z,9.43
2018-11-14T13:17:43.401Z,13.27
2018-11-14T13:20:21.895Z,8.33
2018-11-14T13:22:57.516Z,9.77
2018-11-14T13:28:18.769Z,9.07
2018-11-14T13:30:57.178Z,10.17
2018-11-14T13:33:28.346Z,11.13
2018-11-14T13:36:02.259Z,16.13
2018-11-14T13:41:29.095Z,11.00
2018-11-14T13:43:58.269Z,10.57
2018-11-14T13:46:27.483Z,10.53
2018-11-14T13:48:56.779Z,8.03
2018-11-14T13:51:26.265Z,7.73
2018-11-14T13:53:55.428Z,7.70
2018-11-14T13:56:29.115Z,7.53
2018-11-14T13:58:58.478Z,7.37
2018-11-14T14:01:27.805Z,10.23
2018-11-14T14:03:58.535Z,7.37
2018-11-14T14:06:27.881Z,10.77
2018-11-14T14:08:57.245Z,6.30
2018-11-14T14:11:26.665Z,10.40
2018-11-14T14:14:02.215Z,10.00
2018-11-14T14:16:32.176Z,6.50
2018-11-14T14:19:01.642Z,5.50
2018-11-14T14:21:30.799Z,7.47
2018-11-14T14:24:00.124Z,4.87
2018-11-14T14:26:29.105Z,7.53
2018-11-14T14:28:59.257Z,8.77
2018-11-14T14:31:28.831Z,2.93
2018-11-14T14:33:58.082Z,8.17
2018-11-14T14:36:27.148Z,5.67
2018-11-14T14:38:56.549Z,5.93
2018-11-14T14:41:25.308Z,6.40
2018-11-14T14:43:54.612Z,5.47
2018-11-14T14:46:23.665Z,4.37
2018-11-14T14:48:52.680Z,5.47
2018-11-14T14:51:21.695Z,8.07
2018-11-14T14:53:52.712Z,8.67
2018-11-14T14:56:21.761Z,7.93
2018-11-14T14:58:50.706Z,7.03
2018-11-14T15:01:20.073Z,7.10
2018-11-14T15:03:49.499Z,8.70
2018-11-14T15:06:18.378Z,9.20
2018-11-14T15:08:47.141Z,8.50
2018-11-14T15:11:16.685Z,9.70
2018-11-14T15:13:45.608Z,11.70
2018-11-14T15:16:14.605Z,5.63
2018-11-14T15:18:43.525Z,10.13
2018-11-14T15:21:12.678Z,7.90
2018-11-14T15:23:41.583Z,8.47
2018-11-14T15:26:10.554Z,8.63
2018-11-14T15:28:39.775Z,6.40
2018-11-14T15:31:08.824Z,9.37
2018-11-14T15:33:38.056Z,7.57
2018-11-14T15:36:07.611Z,10.23
2018-11-14T15:38:36.713Z,9.57
2018-11-14T15:41:06.339Z,14.33
2018-11-14T15:43:35.143Z,8.63
2018-11-14T15:46:04.781Z,12.13
2018-11-14T15:48:33.974Z,10.83
2018-11-14T15:51:03.212Z,13.70
2018-11-14T15:53:32.452Z,15.60
2018-11-14T15:56:02.703Z,10.50
2018-11-14T15:58:31.685Z,13.50
2018-11-14T16:01:01.938Z,11.93
2018-11-14T16:03:30.691Z,17.60
2018-11-14T16:05:59.584Z,15.27
2018-11-14T16:08:28.420Z,12.50
2018-11-14T16:10:58.708Z,12.67
2018-11-14T16:13:27.830Z,14.30
2018-11-14T16:15:57.733Z,12.13
2018-11-14T16:18:26.962Z,9.57
2018-11-14T16:23:23.299Z,9.10
2018-11-14T16:25:52.205Z,7.57
2018-11-14T16:28:21.272Z,9.37
2018-11-14T16:30:50.154Z,10.13
2018-11-14T16:33:19.670Z,10.73
2018-11-14T16:35:48.398Z,13.90
2018-11-14T16:38:18.267Z,12.10
2018-11-14T16:40:47.430Z,10.83
2018-11-14T16:43:18.953Z,8.33
2018-11-14T16:45:47.712Z,10.90
2018-11-14T16:48:17.073Z,11.23
2018-11-14T16:50:46.208Z,7.07
2018-11-14T16:53:14.980Z,11.90
2018-11-14T16:55:45.370Z,6.67
2018-11-14T16:58:15.215Z,7.93
2018-11-14T17:00:44.200Z,9.73
2018-11-14T17:03:12.829Z,8.67
2018-11-14T17:05:41.499Z,7.07
2018-11-14T17:08:10.424Z,10.97
2018-11-14T17:10:39.105Z,10.43
2018-11-14T17:13:07.873Z,11.53
2018-11-14T17:15:36.562Z,9.73
2018-11-14T17:18:05.204Z,10.90
2018-11-14T17:20:33.797Z,8.67
2018-11-14T17:23:02.284Z,7.17
2018-11-14T17:25:30.946Z,8.57
2018-11-14T17:28:00.542Z,9.03
2018-11-14T17:30:29.539Z,11.67
2018-11-14T17:32:58.105Z,9.97
2018-11-14T17:35:26.801Z,8.73
2018-11-14T17:37:55.846Z,6.17
2018-11-14T17:40:27.301Z,9.00
2018-11-14T17:42:56.216Z,7.97
2018-11-14T17:45:29.395Z,10.63
2018-11-14T17:47:58.545Z,9.40
2018-11-14T17:50:29.796Z,9.27
2018-11-14T17:52:59.814Z,9.07
2018-11-14T17:55:28.919Z,8.10
2018-11-14T17:57:57.715Z,8.13
2018-11-14T18:00:28.392Z,11.17
2018-11-14T18:02:56.993Z,9.97
2018-11-14T18:05:26.820Z,11.40
2018-11-14T18:07:55.652Z,11.03
2018-11-14T18:10:25.938Z,10.83
2018-11-14T18:12:56.195Z,14.73
2018-11-14T18:15:24.767Z,12.57
2018-11-14T18:17:54.597Z,8.97
2018-11-14T18:20:24.456Z,9.90
2018-11-14T18:22:53.629Z,12.67
2018-11-14T18:25:22.448Z,10.13
2018-11-14T18:27:51.170Z,10.93
2018-11-14T18:30:21.521Z,12.90
2018-11-14T18:32:50.734Z,9.10
2018-11-14T18:35:20.162Z,12.33
2018-11-14T18:37:49.572Z,14.90
2018-11-14T18:40:20.166Z,10.13
2018-11-14T18:42:49.345Z,9.47
2018-11-14T18:45:20.735Z,7.93
2018-11-14T18:47:49.542Z,9.90
2018-11-14T18:50:19.400Z,9.90
2018-11-14T18:52:48.844Z,8.27
2018-11-14T18:55:18.977Z,9.90
2018-11-14T18:57:48.319Z,11.70
2018-11-14T19:00:20.164Z,9.53
2018-11-14T19:02:48.834Z,11.67
2018-11-14T19:05:18.855Z,9.80
2018-11-14T19:07:48.110Z,11.33
2018-11-14T19:10:18.502Z,11.77
2018-11-14T19:12:48.018Z,14.70
2018-11-14T19:15:26.162Z,15.87
2018-11-14T19:17:55.605Z,13.23
2018-11-14T19:20:25.700Z,11.10
2018-11-14T19:22:55.997Z,17.60
2018-11-14T19:25:28.241Z,13.17
2018-11-14T19:27:57.770Z,14.63
2018-11-14T19:30:27.642Z,11.57
2018-11-14T19:32:57.124Z,14.23
2018-11-14T19:35:25.909Z,14.07
2018-11-14T19:37:55.852Z,11.83
2018-11-14T19:40:27.110Z,11.63
2018-11-14T19:42:57.442Z,11.87
2018-11-14T19:45:31.996Z,9.87
2018-11-14T19:48:01.031Z,16.73
2018-11-14T19:50:31.335Z,13.43
2018-11-14T19:53:00.688Z,12.13
2018-11-14T19:55:29.818Z,11.97
2018-11-14T19:57:59.949Z,9.97
2018-11-14T20:00:31.413Z,18.53
2018-11-14T20:03:00.121Z,13.50
2018-11-14T20:05:29.089Z,12.17
2018-11-14T20:07:58.505Z,15.37
2018-11-14T20:10:28.627Z,15.43
2018-11-14T20:12:57.614Z,15.97
2018-11-14T20:15:28.576Z,12.63
2018-11-14T20:17:57.983Z,13.57
2018-11-14T20:20:32.797Z,17.20
2018-11-14T20:23:01.689Z,11.23
2018-11-14T20:25:30.604Z,10.93
2018-11-14T20:27:59.645Z,11.73
2018-11-14T20:30:31.307Z,11.77
2018-11-14T20:33:01.671Z,11.93
2018-11-14T20:35:31.791Z,14.90
2018-11-14T20:38:00.614Z,15.97
2018-11-14T20:40:29.872Z,18.93
2018-11-14T20:42:58.908Z,14.57
2018-11-14T20:45:30.187Z,15.03
2018-11-14T20:47:59.717Z,18.53
2018-11-14T20:50:28.757Z,15.20
2018-11-14T20:52:59.323Z,17.47
2018-11-14T20:55:28.314Z,14.43
2018-11-14T20:57:57.534Z,14.33
2018-11-14T21:00:28.080Z,16.50
2018-11-14T21:03:07.266Z,15.73
2018-11-14T21:05:49.615Z,14.83
2018-11-14T21:08:24.985Z,13.27
2018-11-14T21:10:54.038Z,13.33
2018-11-14T21:13:24.280Z,14.67
2018-11-14T21:15:53.467Z,19.03
2018-11-14T21:18:22.156Z,12.77
2018-11-14T21:20:52.540Z,14.10
2018-11-14T21:23:21.317Z,13.70
2018-11-14T21:25:50.293Z,16.33
2018-11-14T21:28:19.058Z,13.07
2018-11-14T21:30:48.541Z,17.17
2018-11-14T21:33:18.315Z,16.03
2018-11-14T21:35:46.945Z,17.93
2018-11-14T21:38:15.879Z,15.97
2018-11-14T21:40:45.875Z,17.57
2018-11-14T21:43:15.599Z,15.67
2018-11-14T21:45:44.096Z,14.13
2018-11-14T21:48:22.308Z,14.57
2018-11-14T21:51:08.094Z,15.00
2018-11-14T21:53:37.692Z,18.57
2018-11-14T21:56:06.564Z,17.73
2018-11-14T21:58:35.149Z,15.47
2018-11-14T22:01:03.618Z,18.73
2018-11-14T22:03:32.158Z,13.17
2018-11-14T22:06:00.992Z,16.47
2018-11-14T22:08:29.813Z,15.57
2018-11-14T22:10:58.407Z,16.07
2018-11-14T22:13:27.350Z,13.10
2018-11-14T22:15:56.349Z,16.60
2018-11-14T22:18:24.997Z,17.97
2018-11-14T22:20:53.871Z,16.77
2018-11-14T22:23:22.960Z,16.73
2018-11-14T22:25:52.126Z,13.33
2018-11-14T22:28:20.739Z,15.37
2018-11-14T22:30:49.248Z,13.27
2018-11-14T22:33:17.908Z,15.87
2018-11-14T22:35:46.536Z,16.97
2018-11-14T22:38:15.466Z,12.50
2018-11-14T22:40:44.184Z,11.53
2018-11-14T22:43:12.657Z,12.13
2018-11-14T22:45:41.641Z,11.33
2018-11-14T22:48:10.568Z,16.80
2018-11-14T22:50:39.299Z,14.73
2018-11-14T22:53:08.129Z,14.50
2018-11-14T22:55:37.468Z,12.77
2018-11-14T22:58:06.210Z,12.00
2018-11-14T23:00:40.120Z,17.40
2018-11-14T23:03:08.907Z,16.83
2018-11-14T23:05:37.250Z,15.67
2018-11-14T23:08:05.910Z,14.80
2018-11-14T23:10:34.411Z,12.13
2018-11-14T23:13:02.980Z,13.73
2018-11-14T23:15:32.097Z,11.97
2018-11-14T23:18:00.692Z,12.57
2018-11-14T23:20:29.430Z,15.53
2018-11-14T23:22:57.933Z,12.53
2018-11-14T23:25:26.722Z,13.17
2018-11-14T23:27:56.589Z,9.97
2018-11-14T23:30:26.618Z,12.03
2018-11-14T23:32:55.851Z,13.17
2018-11-14T23:35:26.147Z,12.17
2018-11-14T23:37:56.231Z,16.60
2018-11-14T23:40:25.131Z,11.30
2018-11-14T23:42:53.761Z,13.87
2018-11-14T23:45:23.338Z,14.50
2018-11-14T23:47:52.012Z,11.93
2018-11-14T23:50:23.672Z,12.23
2018-11-14T23:52:53.367Z,12.57
2018-11-14T23:55:22.443Z,10.53
2018-11-14T23:57:50.857Z,12.30
